sensor_id;sensor_type;location;lat;lon;timestamp;temperature;humidity
8220;DHT22;4151;51.110;7.020;2024-02-16T00:00:05;13.00;99.90
8220;DHT22;4151;51.110;7.020;2024-02-16T00:02:31;13.10;99.90
8220;DHT22;4151;51.110;7.020;2024-02-16T00:04:58;13.00;99.90
8220;DHT22;4151;51.110;7.020;2024-02-16T00:07:24;13.00;99.90
8220;DHT22;4151;51.110;7.020;2024-02-16T00:09:49;13.00;99.90
8220;DHT22;4151;51.110;7.020;2024-02-16T00:12:15;13.00;99.90
8220;DHT22;4151;51.110;7.020;2024-02-16T00:14:42;13.00;99.90
8220;DHT22;4151;51.110;7.020;2024-02-16T00:17:07;13.00;99.90
8220;DHT22;4151;51.110;7.020;2024-02-16T00:19:35;13.00;99.90
8220;DHT22;4151;51.110;7.020;2024-02-16T00:22:01;13.00;99.90
8220;DHT22;4151;51.110;7.020;2024-02-16T00:24:26;12.90;99.90
8220;DHT22;4151;51.110;7.020;2024-02-16T00:26:52;12.90;99.90
8220;DHT22;4151;51.110;7.020;2024-02-16T00:29:17;12.90;99.90
8220;DHT22;4151;51.110;7.020;2024-02-16T00:31:44;12.90;99.90
8220;DHT22;4151;51.110;7.020;2024-02-16T00:34:10;13.00;99.90
8220;DHT22;4151;51.110;7.020;2024-02-16T00:36:36;12.90;99.90
8220;DHT22;4151;51.110;7.020;2024-02-16T00:39:01;13.00;99.90
8220;DHT22;4151;51.110;7.020;2024-02-16T00:41:27;12.90;99.90
8220;DHT22;4151;51.110;7.020;2024-02-16T00:43:53;12.90;99.90
8220;DHT22;4151;51.110;7.020;2024-02-16T00:46:18;13.00;99.90
8220;DHT22;4151;51.110;7.020;2024-02-16T00:48:44;13.00;99.90
8220;DHT22;4151;51.110;7.020;2024-02-16T00:51:11;13.00;99.90
8220;DHT22;4151;51.110;7.020;2024-02-16T00:53:37;13.00;99.90
8220;DHT22;4151;51.110;7.020;2024-02-16T00:56:03;13.00;99.90
8220;DHT22;4151;51.110;7.020;2024-02-16T00:58:28;13.00;99.90
8220;DHT22;4151;51.110;7.020;2024-02-16T01:00:54;12.90;99.90
8220;DHT22;4151;51.110;7.020;2024-02-16T01:03:20;13.00;99.90
8220;DHT22;4151;51.110;7.020;2024-02-16T01:05:45;13.00;99.90
8220;DHT22;4151;51.110;7.020;2024-02-16T01:08:11;12.90;99.90
8220;DHT22;4151;51.110;7.020;2024-02-16T01:10:36;13.00;99.90
8220;DHT22;4151;51.110;7.020;2024-02-16T01:13:02;13.00;99.90
8220;DHT22;4151;51.110;7.020;2024-02-16T01:15:28;13.00;99.90
8220;DHT22;4151;51.110;7.020;2024-02-16T01:17:54;13.00;99.90
8220;DHT22;4151;51.110;7.020;2024-02-16T01:20:19;13.00;99.90
8220;DHT22;4151;51.110;7.020;2024-02-16T01:22:45;13.00;99.90
8220;DHT22;4151;51.110;7.020;2024-02-16T01:25:11;13.00;99.90
8220;DHT22;4151;51.110;7.020;2024-02-16T01:27:36;12.90;99.90
8220;DHT22;4151;51.110;7.020;2024-02-16T01:30:02;12.90;99.90
8220;DHT22;4151;51.110;7.020;2024-02-16T01:32:28;13.00;99.90
8220;DHT22;4151;51.110;7.020;2024-02-16T01:34:53;13.00;99.90
8220;DHT22;4151;51.110;7.020;2024-02-16T01:37:19;13.00;99.90
8220;DHT22;4151;51.110;7.020;2024-02-16T01:39:45;13.00;99.90
8220;DHT22;4151;51.110;7.020;2024-02-16T01:42:12;13.10;99.90
8220;DHT22;4151;51.110;7.020;2024-02-16T01:44:37;13.10;99.90
8220;DHT22;4151;51.110;7.020;2024-02-16T01:47:03;13.10;99.90
8220;DHT22;4151;51.110;7.020;2024-02-16T01:49:29;13.10;99.90
8220;DHT22;4151;51.110;7.020;2024-02-16T01:51:56;13.10;99.90
8220;DHT22;4151;51.110;7.020;2024-02-16T01:54:22;13.10;99.90
8220;DHT22;4151;51.110;7.020;2024-02-16T01:56:48;13.10;99.90
8220;DHT22;4151;51.110;7.020;2024-02-16T01:59:16;13.20;99.90
8220;DHT22;4151;51.110;7.020;2024-02-16T02:01:42;13.20;99.90
8220;DHT22;4151;51.110;7.020;2024-02-16T02:04:07;13.10;99.90
8220;DHT22;4151;51.110;7.020;2024-02-16T02:06:33;13.20;99.90
8220;DHT22;4151;51.110;7.020;2024-02-16T02:08:58;13.20;99.90
8220;DHT22;4151;51.110;7.020;2024-02-16T02:11:24;13.20;99.90
8220;DHT22;4151;51.110;7.020;2024-02-16T02:13:50;13.20;99.90
8220;DHT22;4151;51.110;7.020;2024-02-16T02:16:16;13.20;99.90
8220;DHT22;4151;51.110;7.020;2024-02-16T02:18:43;13.20;99.90
8220;DHT22;4151;51.110;7.020;2024-02-16T02:21:09;13.20;99.90
8220;DHT22;4151;51.110;7.020;2024-02-16T02:23:34;13.20;99.90
8220;DHT22;4151;51.110;7.020;2024-02-16T02:26:01;13.20;99.90
8220;DHT22;4151;51.110;7.020;2024-02-16T02:28:26;13.30;99.90
8220;DHT22;4151;51.110;7.020;2024-02-16T02:30:52;13.30;99.90
8220;DHT22;4151;51.110;7.020;2024-02-16T02:33:18;13.30;99.90
8220;DHT22;4151;51.110;7.020;2024-02-16T02:35:45;13.20;99.90
8220;DHT22;4151;51.110;7.020;2024-02-16T02:38:12;13.30;99.90
8220;DHT22;4151;51.110;7.020;2024-02-16T02:40:37;13.30;99.90
8220;DHT22;4151;51.110;7.020;2024-02-16T02:43:03;13.30;99.90
8220;DHT22;4151;51.110;7.020;2024-02-16T02:45:29;13.30;99.90
8220;DHT22;4151;51.110;7.020;2024-02-16T02:47:54;13.30;99.90
8220;DHT22;4151;51.110;7.020;2024-02-16T02:50:20;13.20;99.90
8220;DHT22;4151;51.110;7.020;2024-02-16T02:52:46;13.20;99.90
8220;DHT22;4151;51.110;7.020;2024-02-16T02:55:11;13.30;99.90
8220;DHT22;4151;51.110;7.020;2024-02-16T02:57:37;13.30;99.90
8220;DHT22;4151;51.110;7.020;2024-02-16T03:00:04;13.30;99.90
8220;DHT22;4151;51.110;7.020;2024-02-16T03:02:31;13.30;99.90
8220;DHT22;4151;51.110;7.020;2024-02-16T03:04:57;13.30;99.90
8220;DHT22;4151;51.110;7.020;2024-02-16T03:07:22;13.30;99.90
8220;DHT22;4151;51.110;7.020;2024-02-16T03:09:48;13.30;99.90
8220;DHT22;4151;51.110;7.020;2024-02-16T03:12:13;13.30;99.90
8220;DHT22;4151;51.110;7.020;2024-02-16T03:14:39;13.30;99.90
8220;DHT22;4151;51.110;7.020;2024-02-16T03:17:04;13.30;99.90
8220;DHT22;4151;51.110;7.020;2024-02-16T03:19:30;13.30;99.90
8220;DHT22;4151;51.110;7.020;2024-02-16T03:21:56;13.30;99.90
8220;DHT22;4151;51.110;7.020;2024-02-16T03:24:21;13.20;99.90
8220;DHT22;4151;51.110;7.020;2024-02-16T03:26:47;13.20;99.90
8220;DHT22;4151;51.110;7.020;2024-02-16T03:29:14;13.10;99.90
8220;DHT22;4151;51.110;7.020;2024-02-16T03:31:39;13.00;99.90
8220;DHT22;4151;51.110;7.020;2024-02-16T03:34:05;13.00;99.90
8220;DHT22;4151;51.110;7.020;2024-02-16T03:36:31;13.00;99.90
8220;DHT22;4151;51.110;7.020;2024-02-16T03:38:56;13.00;99.90
8220;DHT22;4151;51.110;7.020;2024-02-16T03:41:22;13.10;99.90
8220;DHT22;4151;51.110;7.020;2024-02-16T03:43:49;13.10;99.90
8220;DHT22;4151;51.110;7.020;2024-02-16T03:46:15;13.10;99.90
8220;DHT22;4151;51.110;7.020;2024-02-16T03:48:41;13.00;99.90
8220;DHT22;4151;51.110;7.020;2024-02-16T03:51:07;13.10;99.90
8220;DHT22;4151;51.110;7.020;2024-02-16T03:53:32;13.10;99.90
8220;DHT22;4151;51.110;7.020;2024-02-16T03:55:58;13.30;99.90
8220;DHT22;4151;51.110;7.020;2024-02-16T03:58:24;13.10;99.90
8220;DHT22;4151;51.110;7.020;2024-02-16T04:00:50;13.10;99.90
8220;DHT22;4151;51.110;7.020;2024-02-16T04:03:16;13.10;99.90
8220;DHT22;4151;51.110;7.020;2024-02-16T04:05:42;13.10;99.90
8220;DHT22;4151;51.110;7.020;2024-02-16T04:08:08;13.10;99.90
8220;DHT22;4151;51.110;7.020;2024-02-16T04:10:34;13.10;99.90
8220;DHT22;4151;51.110;7.020;2024-02-16T04:13:00;13.00;99.90
8220;DHT22;4151;51.110;7.020;2024-02-16T04:15:26;13.10;99.90
8220;DHT22;4151;51.110;7.020;2024-02-16T04:17:51;13.10;99.90
8220;DHT22;4151;51.110;7.020;2024-02-16T04:20:17;13.10;99.90
8220;DHT22;4151;51.110;7.020;2024-02-16T04:22:43;13.10;99.90
8220;DHT22;4151;51.110;7.020;2024-02-16T04:25:09;13.10;99.90
8220;DHT22;4151;51.110;7.020;2024-02-16T04:27:35;13.10;99.90
8220;DHT22;4151;51.110;7.020;2024-02-16T04:30:01;13.20;99.90
8220;DHT22;4151;51.110;7.020;2024-02-16T04:32:27;13.20;99.90
8220;DHT22;4151;51.110;7.020;2024-02-16T04:34:53;13.20;99.90
8220;DHT22;4151;51.110;7.020;2024-02-16T04:37:18;13.20;99.90
8220;DHT22;4151;51.110;7.020;2024-02-16T04:39:47;13.30;99.90
8220;DHT22;4151;51.110;7.020;2024-02-16T04:42:13;13.20;99.90
8220;DHT22;4151;51.110;7.020;2024-02-16T04:44:38;13.20;99.90
8220;DHT22;4151;51.110;7.020;2024-02-16T04:47:05;13.20;99.90
8220;DHT22;4151;51.110;7.020;2024-02-16T04:49:30;13.20;99.90
8220;DHT22;4151;51.110;7.020;2024-02-16T04:51:56;13.10;99.90
8220;DHT22;4151;51.110;7.020;2024-02-16T04:54:21;13.10;99.90
8220;DHT22;4151;51.110;7.020;2024-02-16T04:56:48;13.10;99.90
8220;DHT22;4151;51.110;7.020;2024-02-16T04:59:15;13.10;99.90
8220;DHT22;4151;51.110;7.020;2024-02-16T05:01:40;13.10;99.90
8220;DHT22;4151;51.110;7.020;2024-02-16T05:04:06;13.10;99.90
8220;DHT22;4151;51.110;7.020;2024-02-16T05:06:32;13.10;99.90
8220;DHT22;4151;51.110;7.020;2024-02-16T05:08:57;13.00;99.90
8220;DHT22;4151;51.110;7.020;2024-02-16T05:11:23;13.00;99.90
8220;DHT22;4151;51.110;7.020;2024-02-16T05:13:50;13.00;99.90
8220;DHT22;4151;51.110;7.020;2024-02-16T05:16:16;13.00;99.90
8220;DHT22;4151;51.110;7.020;2024-02-16T05:18:42;13.00;99.90
8220;DHT22;4151;51.110;7.020;2024-02-16T05:21:07;12.90;99.90
8220;DHT22;4151;51.110;7.020;2024-02-16T05:23:33;12.90;99.90
8220;DHT22;4151;51.110;7.020;2024-02-16T05:25:59;12.90;99.90
8220;DHT22;4151;51.110;7.020;2024-02-16T05:28:24;12.90;99.90
8220;DHT22;4151;51.110;7.020;2024-02-16T05:30:50;12.90;99.90
8220;DHT22;4151;51.110;7.020;2024-02-16T05:33:15;12.90;99.90
8220;DHT22;4151;51.110;7.020;2024-02-16T05:35:41;12.90;99.90
8220;DHT22;4151;51.110;7.020;2024-02-16T05:38:09;12.90;99.90
8220;DHT22;4151;51.110;7.020;2024-02-16T05:40:57;12.90;99.90
8220;DHT22;4151;51.110;7.020;2024-02-16T05:43:23;12.90;99.90
8220;DHT22;4151;51.110;7.020;2024-02-16T05:45:51;12.90;99.90
8220;DHT22;4151;51.110;7.020;2024-02-16T05:48:17;12.90;99.90
8220;DHT22;4151;51.110;7.020;2024-02-16T05:50:42;12.90;99.90
8220;DHT22;4151;51.110;7.020;2024-02-16T05:53:08;12.90;99.90
8220;DHT22;4151;51.110;7.020;2024-02-16T05:55:36;12.90;99.90
8220;DHT22;4151;51.110;7.020;2024-02-16T05:58:01;12.80;99.90
8220;DHT22;4151;51.110;7.020;2024-02-16T06:00:27;12.80;99.90
8220;DHT22;4151;51.110;7.020;2024-02-16T06:02:53;12.90;99.90
8220;DHT22;4151;51.110;7.020;2024-02-16T06:05:18;12.90;99.90
8220;DHT22;4151;51.110;7.020;2024-02-16T06:07:47;12.90;99.90
8220;DHT22;4151;51.110;7.020;2024-02-16T06:10:12;12.90;99.90
8220;DHT22;4151;51.110;7.020;2024-02-16T06:12:38;12.90;99.90
8220;DHT22;4151;51.110;7.020;2024-02-16T06:15:05;12.90;99.90
8220;DHT22;4151;51.110;7.020;2024-02-16T06:17:30;12.90;99.90
8220;DHT22;4151;51.110;7.020;2024-02-16T06:19:56;13.00;99.90
8220;DHT22;4151;51.110;7.020;2024-02-16T06:22:21;13.00;99.90
8220;DHT22;4151;51.110;7.020;2024-02-16T06:24:47;13.00;99.90
8220;DHT22;4151;51.110;7.020;2024-02-16T06:27:13;13.10;99.90
8220;DHT22;4151;51.110;7.020;2024-02-16T06:29:38;12.90;99.90
8220;DHT22;4151;51.110;7.020;2024-02-16T06:32:04;13.00;99.90
8220;DHT22;4151;51.110;7.020;2024-02-16T06:34:31;12.90;99.90
8220;DHT22;4151;51.110;7.020;2024-02-16T06:36:57;13.00;99.90
8220;DHT22;4151;51.110;7.020;2024-02-16T06:39:22;13.00;99.90
8220;DHT22;4151;51.110;7.020;2024-02-16T06:41:48;13.00;99.90
8220;DHT22;4151;51.110;7.020;2024-02-16T06:44:15;13.00;99.90
8220;DHT22;4151;51.110;7.020;2024-02-16T06:46:41;13.10;99.90
8220;DHT22;4151;51.110;7.020;2024-02-16T06:49:08;13.10;99.90
8220;DHT22;4151;51.110;7.020;2024-02-16T06:51:33;13.10;99.90
8220;DHT22;4151;51.110;7.020;2024-02-16T06:53:59;13.10;99.90
8220;DHT22;4151;51.110;7.020;2024-02-16T06:56:24;13.10;99.90
8220;DHT22;4151;51.110;7.020;2024-02-16T06:58:50;13.10;99.90
8220;DHT22;4151;51.110;7.020;2024-02-16T07:01:16;13.10;99.90
8220;DHT22;4151;51.110;7.020;2024-02-16T07:03:44;13.10;99.90
8220;DHT22;4151;51.110;7.020;2024-02-16T07:06:09;13.10;99.90
8220;DHT22;4151;51.110;7.020;2024-02-16T07:08:42;13.20;99.90
8220;DHT22;4151;51.110;7.020;2024-02-16T07:11:08;13.20;99.90
8220;DHT22;4151;51.110;7.020;2024-02-16T07:13:34;13.10;99.90
8220;DHT22;4151;51.110;7.020;2024-02-16T07:16:00;13.10;99.90
8220;DHT22;4151;51.110;7.020;2024-02-16T07:18:25;13.10;99.90
8220;DHT22;4151;51.110;7.020;2024-02-16T07:20:51;13.10;99.90
8220;DHT22;4151;51.110;7.020;2024-02-16T07:23:16;13.10;99.90
8220;DHT22;4151;51.110;7.020;2024-02-16T07:25:43;13.10;99.90
8220;DHT22;4151;51.110;7.020;2024-02-16T07:28:08;13.10;99.90
8220;DHT22;4151;51.110;7.020;2024-02-16T07:30:35;13.10;99.90
8220;DHT22;4151;51.110;7.020;2024-02-16T07:33:06;13.20;99.90
8220;DHT22;4151;51.110;7.020;2024-02-16T07:35:35;13.20;99.90
8220;DHT22;4151;51.110;7.020;2024-02-16T07:38:01;13.30;99.90
8220;DHT22;4151;51.110;7.020;2024-02-16T07:40:27;13.40;99.90
8220;DHT22;4151;51.110;7.020;2024-02-16T07:42:53;13.30;99.90
8220;DHT22;4151;51.110;7.020;2024-02-16T07:45:19;13.50;99.90
8220;DHT22;4151;51.110;7.020;2024-02-16T07:47:46;13.50;99.90
8220;DHT22;4151;51.110;7.020;2024-02-16T07:50:11;13.60;99.90
8220;DHT22;4151;51.110;7.020;2024-02-16T07:52:38;13.60;99.90
8220;DHT22;4151;51.110;7.020;2024-02-16T07:55:05;13.60;99.90
8220;DHT22;4151;51.110;7.020;2024-02-16T07:57:30;13.70;99.90
8220;DHT22;4151;51.110;7.020;2024-02-16T07:59:56;13.70;99.90
8220;DHT22;4151;51.110;7.020;2024-02-16T08:02:22;13.80;99.90
8220;DHT22;4151;51.110;7.020;2024-02-16T08:04:51;13.70;99.90
8220;DHT22;4151;51.110;7.020;2024-02-16T08:07:17;13.70;99.90
8220;DHT22;4151;51.110;7.020;2024-02-16T08:09:48;13.70;99.90
8220;DHT22;4151;51.110;7.020;2024-02-16T08:12:14;13.70;99.90
8220;DHT22;4151;51.110;7.020;2024-02-16T08:14:40;13.80;99.90
8220;DHT22;4151;51.110;7.020;2024-02-16T08:17:07;13.80;99.90
8220;DHT22;4151;51.110;7.020;2024-02-16T08:19:34;13.80;99.90
8220;DHT22;4151;51.110;7.020;2024-02-16T08:22:01;13.80;99.90
8220;DHT22;4151;51.110;7.020;2024-02-16T08:24:26;13.90;99.90
8220;DHT22;4151;51.110;7.020;2024-02-16T08:26:52;13.90;99.90
8220;DHT22;4151;51.110;7.020;2024-02-16T08:29:18;13.90;99.90
8220;DHT22;4151;51.110;7.020;2024-02-16T08:31:43;13.90;99.90
8220;DHT22;4151;51.110;7.020;2024-02-16T08:34:09;13.90;99.90
8220;DHT22;4151;51.110;7.020;2024-02-16T08:36:36;13.90;99.90
8220;DHT22;4151;51.110;7.020;2024-02-16T08:39:01;13.90;99.90
8220;DHT22;4151;51.110;7.020;2024-02-16T08:41:27;13.90;99.90
8220;DHT22;4151;51.110;7.020;2024-02-16T08:43:52;14.00;99.90
8220;DHT22;4151;51.110;7.020;2024-02-16T08:46:18;14.00;99.90
8220;DHT22;4151;51.110;7.020;2024-02-16T08:48:47;14.10;99.90
8220;DHT22;4151;51.110;7.020;2024-02-16T08:51:12;14.10;99.90
8220;DHT22;4151;51.110;7.020;2024-02-16T08:53:39;14.20;99.90
8220;DHT22;4151;51.110;7.020;2024-02-16T08:56:09;14.30;99.90
8220;DHT22;4151;51.110;7.020;2024-02-16T08:58:36;14.30;99.90
8220;DHT22;4151;51.110;7.020;2024-02-16T09:01:02;14.30;99.90
8220;DHT22;4151;51.110;7.020;2024-02-16T09:03:28;14.40;99.90
8220;DHT22;4151;51.110;7.020;2024-02-16T09:05:53;14.40;99.90
8220;DHT22;4151;51.110;7.020;2024-02-16T09:08:19;14.50;99.90
8220;DHT22;4151;51.110;7.020;2024-02-16T09:10:44;14.50;99.90
8220;DHT22;4151;51.110;7.020;2024-02-16T09:13:10;14.50;99.90
8220;DHT22;4151;51.110;7.020;2024-02-16T09:15:36;14.60;99.90
8220;DHT22;4151;51.110;7.020;2024-02-16T09:18:02;14.50;99.90
8220;DHT22;4151;51.110;7.020;2024-02-16T09:20:28;14.60;99.90
8220;DHT22;4151;51.110;7.020;2024-02-16T09:22:54;14.60;99.90
8220;DHT22;4151;51.110;7.020;2024-02-16T09:25:19;14.60;99.90
8220;DHT22;4151;51.110;7.020;2024-02-16T09:27:46;14.60;99.90
8220;DHT22;4151;51.110;7.020;2024-02-16T09:30:12;14.60;99.90
8220;DHT22;4151;51.110;7.020;2024-02-16T09:32:41;14.60;99.90
8220;DHT22;4151;51.110;7.020;2024-02-16T09:35:08;14.60;99.90
8220;DHT22;4151;51.110;7.020;2024-02-16T09:37:35;14.50;99.90
8220;DHT22;4151;51.110;7.020;2024-02-16T09:40:01;14.50;99.90
8220;DHT22;4151;51.110;7.020;2024-02-16T09:42:29;14.50;99.90
8220;DHT22;4151;51.110;7.020;2024-02-16T09:44:54;14.60;99.90
8220;DHT22;4151;51.110;7.020;2024-02-16T09:47:22;14.60;99.90
8220;DHT22;4151;51.110;7.020;2024-02-16T09:49:48;14.70;99.90
8220;DHT22;4151;51.110;7.020;2024-02-16T09:52:14;14.70;99.90
8220;DHT22;4151;51.110;7.020;2024-02-16T09:54:40;14.80;99.90
8220;DHT22;4151;51.110;7.020;2024-02-16T09:57:06;14.90;99.90
8220;DHT22;4151;51.110;7.020;2024-02-16T09:59:31;15.10;99.90
8220;DHT22;4151;51.110;7.020;2024-02-16T10:02:03;15.20;99.90
8220;DHT22;4151;51.110;7.020;2024-02-16T10:04:29;15.40;99.90
8220;DHT22;4151;51.110;7.020;2024-02-16T10:06:55;15.30;99.90
8220;DHT22;4151;51.110;7.020;2024-02-16T10:09:25;15.30;99.90
8220;DHT22;4151;51.110;7.020;2024-02-16T10:11:51;15.10;99.90
8220;DHT22;4151;51.110;7.020;2024-02-16T10:14:17;15.00;99.90
8220;DHT22;4151;51.110;7.020;2024-02-16T10:16:45;15.00;99.90
8220;DHT22;4151;51.110;7.020;2024-02-16T10:19:11;14.90;99.90
8220;DHT22;4151;51.110;7.020;2024-02-16T10:21:37;14.80;99.90
8220;DHT22;4151;51.110;7.020;2024-02-16T10:24:06;14.80;99.90
8220;DHT22;4151;51.110;7.020;2024-02-16T10:26:33;14.70;99.90
8220;DHT22;4151;51.110;7.020;2024-02-16T10:29:03;14.70;99.90
8220;DHT22;4151;51.110;7.020;2024-02-16T10:31:30;14.70;99.90
8220;DHT22;4151;51.110;7.020;2024-02-16T10:34:06;14.80;99.90
8220;DHT22;4151;51.110;7.020;2024-02-16T10:36:36;14.90;99.90
8220;DHT22;4151;51.110;7.020;2024-02-16T10:39:02;15.00;99.90
8220;DHT22;4151;51.110;7.020;2024-02-16T10:41:38;14.90;99.90
8220;DHT22;4151;51.110;7.020;2024-02-16T10:44:05;14.90;99.90
8220;DHT22;4151;51.110;7.020;2024-02-16T10:46:31;14.80;99.90
8220;DHT22;4151;51.110;7.020;2024-02-16T10:48:57;14.80;99.90
8220;DHT22;4151;51.110;7.020;2024-02-16T10:51:34;14.70;99.90
8220;DHT22;4151;51.110;7.020;2024-02-16T10:54:01;14.60;99.90
8220;DHT22;4151;51.110;7.020;2024-02-16T10:56:31;14.70;99.90
8220;DHT22;4151;51.110;7.020;2024-02-16T10:59:03;14.60;99.90
8220;DHT22;4151;51.110;7.020;2024-02-16T11:01:39;14.50;99.90
8220;DHT22;4151;51.110;7.020;2024-02-16T11:04:08;14.40;99.90
8220;DHT22;4151;51.110;7.020;2024-02-16T11:06:52;14.50;99.90
8220;DHT22;4151;51.110;7.020;2024-02-16T11:09:28;14.50;99.90
8220;DHT22;4151;51.110;7.020;2024-02-16T11:11:58;14.60;99.90
8220;DHT22;4151;51.110;7.020;2024-02-16T11:14:24;14.60;99.90
8220;DHT22;4151;51.110;7.020;2024-02-16T11:16:55;14.50;99.90
8220;DHT22;4151;51.110;7.020;2024-02-16T11:19:22;14.50;99.90
8220;DHT22;4151;51.110;7.020;2024-02-16T11:24:30;14.40;99.90
8220;DHT22;4151;51.110;7.020;2024-02-16T11:26:56;14.40;99.90
8220;DHT22;4151;51.110;7.020;2024-02-16T11:29:22;14.40;99.90
8220;DHT22;4151;51.110;7.020;2024-02-16T11:31:47;14.40;99.90
8220;DHT22;4151;51.110;7.020;2024-02-16T11:34:23;14.50;99.90
8220;DHT22;4151;51.110;7.020;2024-02-16T11:36:48;14.50;99.90
8220;DHT22;4151;51.110;7.020;2024-02-16T11:39:14;14.50;99.90
8220;DHT22;4151;51.110;7.020;2024-02-16T11:41:42;14.40;99.90
8220;DHT22;4151;51.110;7.020;2024-02-16T11:44:08;14.30;99.90
8220;DHT22;4151;51.110;7.020;2024-02-16T11:46:34;14.20;99.90
8220;DHT22;4151;51.110;7.020;2024-02-16T11:49:05;14.10;99.90
8220;DHT22;4151;51.110;7.020;2024-02-16T11:51:31;14.10;99.90
8220;DHT22;4151;51.110;7.020;2024-02-16T11:53:58;14.00;99.90
8220;DHT22;4151;51.110;7.020;2024-02-16T11:56:24;14.00;99.90
8220;DHT22;4151;51.110;7.020;2024-02-16T11:58:50;14.00;99.90
8220;DHT22;4151;51.110;7.020;2024-02-16T12:01:16;13.90;99.90
8220;DHT22;4151;51.110;7.020;2024-02-16T12:03:42;13.90;99.90
8220;DHT22;4151;51.110;7.020;2024-02-16T12:06:08;13.90;99.90
8220;DHT22;4151;51.110;7.020;2024-02-16T12:08:34;13.90;99.90
8220;DHT22;4151;51.110;7.020;2024-02-16T12:11:00;13.90;99.90
8220;DHT22;4151;51.110;7.020;2024-02-16T12:13:27;13.90;99.90
8220;DHT22;4151;51.110;7.020;2024-02-16T12:15:53;13.90;99.90
8220;DHT22;4151;51.110;7.020;2024-02-16T12:18:23;13.90;99.90
8220;DHT22;4151;51.110;7.020;2024-02-16T12:21:01;13.90;99.90
8220;DHT22;4151;51.110;7.020;2024-02-16T12:23:28;14.00;99.90
8220;DHT22;4151;51.110;7.020;2024-02-16T12:25:53;14.00;99.90
8220;DHT22;4151;51.110;7.020;2024-02-16T12:28:23;14.00;99.90
8220;DHT22;4151;51.110;7.020;2024-02-16T12:30:49;14.00;99.90
8220;DHT22;4151;51.110;7.020;2024-02-16T12:33:15;13.90;99.90
8220;DHT22;4151;51.110;7.020;2024-02-16T12:35:40;13.80;99.90
8220;DHT22;4151;51.110;7.020;2024-02-16T12:38:06;13.70;99.90
8220;DHT22;4151;51.110;7.020;2024-02-16T12:40:31;13.50;99.90
8220;DHT22;4151;51.110;7.020;2024-02-16T12:42:57;13.40;99.90
8220;DHT22;4151;51.110;7.020;2024-02-16T12:45:22;13.20;99.90
8220;DHT22;4151;51.110;7.020;2024-02-16T12:47:49;13.00;99.90
8220;DHT22;4151;51.110;7.020;2024-02-16T12:50:15;12.90;99.90
8220;DHT22;4151;51.110;7.020;2024-02-16T12:52:41;12.80;99.90
8220;DHT22;4151;51.110;7.020;2024-02-16T12:55:07;12.70;99.90
8220;DHT22;4151;51.110;7.020;2024-02-16T12:57:34;12.70;99.90
8220;DHT22;4151;51.110;7.020;2024-02-16T13:00:00;12.60;99.90
8220;DHT22;4151;51.110;7.020;2024-02-16T13:02:26;12.60;99.90
8220;DHT22;4151;51.110;7.020;2024-02-16T13:04:52;12.60;99.90
8220;DHT22;4151;51.110;7.020;2024-02-16T13:07:19;12.60;99.90
8220;DHT22;4151;51.110;7.020;2024-02-16T13:09:45;12.50;99.90
8220;DHT22;4151;51.110;7.020;2024-02-16T13:12:10;12.50;99.90
8220;DHT22;4151;51.110;7.020;2024-02-16T13:14:36;12.50;99.90
8220;DHT22;4151;51.110;7.020;2024-02-16T13:17:02;12.50;99.90
8220;DHT22;4151;51.110;7.020;2024-02-16T13:19:27;12.50;99.90
8220;DHT22;4151;51.110;7.020;2024-02-16T13:21:53;12.50;99.90
8220;DHT22;4151;51.110;7.020;2024-02-16T13:24:19;12.50;99.90
8220;DHT22;4151;51.110;7.020;2024-02-16T13:26:44;12.50;99.90
8220;DHT22;4151;51.110;7.020;2024-02-16T13:29:10;12.50;99.90
8220;DHT22;4151;51.110;7.020;2024-02-16T13:31:36;12.50;99.90
8220;DHT22;4151;51.110;7.020;2024-02-16T13:34:02;12.50;99.90
8220;DHT22;4151;51.110;7.020;2024-02-16T13:36:27;12.50;99.90
8220;DHT22;4151;51.110;7.020;2024-02-16T13:38:53;12.50;99.90
8220;DHT22;4151;51.110;7.020;2024-02-16T13:41:19;12.40;99.90
8220;DHT22;4151;51.110;7.020;2024-02-16T13:43:45;12.40;99.90
8220;DHT22;4151;51.110;7.020;2024-02-16T13:46:10;12.40;99.90
8220;DHT22;4151;51.110;7.020;2024-02-16T13:48:36;12.50;99.90
8220;DHT22;4151;51.110;7.020;2024-02-16T13:51:03;12.50;99.90
8220;DHT22;4151;51.110;7.020;2024-02-16T13:53:31;12.50;99.90
8220;DHT22;4151;51.110;7.020;2024-02-16T13:55:56;12.50;99.90
8220;DHT22;4151;51.110;7.020;2024-02-16T13:58:26;12.50;99.90
8220;DHT22;4151;51.110;7.020;2024-02-16T14:00:52;12.50;99.90
8220;DHT22;4151;51.110;7.020;2024-02-16T14:03:18;12.50;99.90
8220;DHT22;4151;51.110;7.020;2024-02-16T14:05:45;12.50;99.90
8220;DHT22;4151;51.110;7.020;2024-02-16T14:08:10;12.60;99.90
8220;DHT22;4151;51.110;7.020;2024-02-16T14:10:38;12.50;99.90
8220;DHT22;4151;51.110;7.020;2024-02-16T14:13:04;12.60;99.90
8220;DHT22;4151;51.110;7.020;2024-02-16T14:15:29;12.50;99.90
8220;DHT22;4151;51.110;7.020;2024-02-16T14:17:55;12.50;99.90
8220;DHT22;4151;51.110;7.020;2024-02-16T14:20:21;12.50;99.90
8220;DHT22;4151;51.110;7.020;2024-02-16T14:22:47;12.50;99.90
8220;DHT22;4151;51.110;7.020;2024-02-16T14:25:13;12.50;99.90
8220;DHT22;4151;51.110;7.020;2024-02-16T14:27:39;12.50;99.90
8220;DHT22;4151;51.110;7.020;2024-02-16T14:30:05;12.50;99.90
8220;DHT22;4151;51.110;7.020;2024-02-16T14:32:31;12.50;99.90
8220;DHT22;4151;51.110;7.020;2024-02-16T14:34:57;12.50;99.90
8220;DHT22;4151;51.110;7.020;2024-02-16T14:37:22;12.50;99.90
8220;DHT22;4151;51.110;7.020;2024-02-16T14:39:48;12.50;99.90
8220;DHT22;4151;51.110;7.020;2024-02-16T14:42:14;12.50;99.90
8220;DHT22;4151;51.110;7.020;2024-02-16T14:44:40;12.50;99.90
8220;DHT22;4151;51.110;7.020;2024-02-16T14:47:05;12.50;99.90
8220;DHT22;4151;51.110;7.020;2024-02-16T14:49:31;12.70;99.90
8220;DHT22;4151;51.110;7.020;2024-02-16T14:51:57;12.70;99.90
8220;DHT22;4151;51.110;7.020;2024-02-16T14:54:23;12.70;99.90
8220;DHT22;4151;51.110;7.020;2024-02-16T14:56:52;12.70;99.90
8220;DHT22;4151;51.110;7.020;2024-02-16T14:59:18;12.70;99.90
8220;DHT22;4151;51.110;7.020;2024-02-16T15:01:44;12.70;99.90
8220;DHT22;4151;51.110;7.020;2024-02-16T15:04:11;12.70;99.90
8220;DHT22;4151;51.110;7.020;2024-02-16T15:06:36;12.70;99.90
8220;DHT22;4151;51.110;7.020;2024-02-16T15:09:02;12.70;99.90
8220;DHT22;4151;51.110;7.020;2024-02-16T15:11:31;12.70;99.90
8220;DHT22;4151;51.110;7.020;2024-02-16T15:13:56;12.70;99.90
8220;DHT22;4151;51.110;7.020;2024-02-16T15:16:22;12.70;99.90
8220;DHT22;4151;51.110;7.020;2024-02-16T15:18:48;12.70;99.90
8220;DHT22;4151;51.110;7.020;2024-02-16T15:21:13;12.70;99.90
8220;DHT22;4151;51.110;7.020;2024-02-16T15:23:39;12.80;99.90
8220;DHT22;4151;51.110;7.020;2024-02-16T15:26:04;12.70;99.90
8220;DHT22;4151;51.110;7.020;2024-02-16T15:28:31;12.70;99.90
8220;DHT22;4151;51.110;7.020;2024-02-16T15:30:57;12.70;99.90
8220;DHT22;4151;51.110;7.020;2024-02-16T15:33:23;12.70;99.90
8220;DHT22;4151;51.110;7.020;2024-02-16T15:35:48;12.70;99.90
8220;DHT22;4151;51.110;7.020;2024-02-16T15:38:14;12.70;99.90
8220;DHT22;4151;51.110;7.020;2024-02-16T15:40:39;12.70;99.90
8220;DHT22;4151;51.110;7.020;2024-02-16T15:43:05;12.70;99.90
8220;DHT22;4151;51.110;7.020;2024-02-16T15:45:32;12.70;99.90
8220;DHT22;4151;51.110;7.020;2024-02-16T15:48:00;12.70;99.90
8220;DHT22;4151;51.110;7.020;2024-02-16T15:50:26;12.70;99.90
8220;DHT22;4151;51.110;7.020;2024-02-16T15:52:51;12.70;99.90
8220;DHT22;4151;51.110;7.020;2024-02-16T15:55:17;12.70;99.90
8220;DHT22;4151;51.110;7.020;2024-02-16T15:57:43;12.60;99.90